Hersey, Wisconsin
Current Conditions -  °F | °C
As of 1:55 PM on Saturday 25 Oct 2014 (Local Time) from KLUM Reporting Station
Clear Clear  
Wind Chill: 62°   Ceiling: Unl
Heat Index: 62°   Visibility: 10mi
Dew Point: 28°   Wind: 17mph
Humidity: 28%   Direction: 270°W
Pressure: 29.99"   Gusts: 24mph
Location:  44.9123°N, 92.1905°W
Report Text: KLUM 251855Z AUTO 27015G21KT 10SM CLR 17/M02 A2999 RMK AO2 T01651020
Loading
Personal Weather Stations






























Interactive Weather Map
Tropical Storm Tracking
New forecast layout! Learn more

10-Day Weather Forecast

Advertisements
Track Severe Weather on mobile